Time;durP1;ratioP1;P1;durP2;ratioP2;P2;SDS_P1;SDS_P2;PMS_P1;PMS_P2;Temp;Humidity;BMP_temperature;BMP_pressure;BME280_temperature;BME280_humidity;BME280_pressure;Samples;Min_cycle;Max_cycle;Signal;HPM_P1;HPM_P2
2022/11/29 08:33:16;;;;;;;18.60;5.40;;;;;;;;;;5942941;22;5044415;-63
2022/11/29 08:36:18;;;;;;;15.65;5.25;;;;;;;;;;5035433;27;131301;-64
2022/11/29 08:38:46;;;;;;;13.75;4.78;;;;;;;;;;4998786;28;21130;-64
2022/11/29 08:41:18;;;;;;;15.98;5.90;;;;;;;;;;5041990;28;20037;-65
2022/11/29 08:43:47;;;;;;;16.77;4.90;;;;;;;;;;5009483;28;20412;-63
2022/11/29 08:46:14;;;;;;;16.25;4.00;;;;;;;;;;5002914;28;20060;-64
2022/11/29 08:48:42;;;;;;;15.02;5.18;;;;;;;;;;5009971;28;20438;-63
2022/11/29 08:51:11;;;;;;;20.25;4.93;;;;;;;;;;5039319;28;20029;-63
2022/11/29 08:53:41;;;;;;;13.60;4.05;;;;;;;;;;5041644;28;20041;-63
2022/11/29 08:56:13;;;;;;;12.07;3.78;;;;;;;;;;5007379;28;20056;-64
2022/11/29 08:58:40;;;;;;;12.98;4.03;;;;;;;;;;5020012;28;20038;-64
2022/11/29 09:01:18;;;;;;;15.52;3.70;;;;;;;;;;5004168;28;20041;-64
2022/11/29 09:03:58;;;;;;;13.57;3.70;;;;;;;;;;5008475;28;20487;-62
2022/11/29 09:06:29;;;;;;;12.98;4.15;;;;;;;;;;5004369;28;20095;-65
2022/11/29 09:08:56;;;;;;;11.93;4.85;;;;;;;;;;5034368;28;20060;-63
2022/11/29 09:11:24;;;;;;;13.75;4.57;;;;;;;;;;5004307;28;20031;-63
2022/11/29 09:13:53;;;;;;;12.70;4.07;;;;;;;;;;5010321;28;20289;-63
2022/11/29 09:16:22;;;;;;;10.32;3.63;;;;;;;;;;5003843;28;20022;-63
2022/11/29 09:18:51;;;;;;;11.45;4.05;;;;;;;;;;5016467;28;20048;-63
2022/11/29 09:21:20;;;;;;;13.07;4.20;;;;;;;;;;5023850;28;20033;-63
2022/11/29 09:23:49;;;;;;;11.75;3.78;;;;;;;;;;5023556;28;20410;-63
2022/11/29 09:26:18;;;;;;;10.85;4.15;;;;;;;;;;5020609;28;20350;-63
2022/11/29 09:28:50;;;;;;;10.57;3.38;;;;;;;;;;4978790;28;20041;-65
2022/11/29 09:31:18;;;;;;;11.88;3.33;;;;;;;;;;4967860;28;23866;-63
2022/11/29 09:33:47;;;;;;;12.43;3.50;;;;;;;;;;4994827;28;20398;-64
2022/11/29 09:36:16;;;;;;;12.25;3.65;;;;;;;;;;4999454;28;20636;-63
2022/11/29 09:38:45;;;;;;;11.10;2.95;;;;;;;;;;5017559;28;20041;-65
2022/11/29 09:41:37;;;;;;;12.25;2.85;;;;;;;;;;5019066;28;20033;-65
2022/11/29 09:44:29;;;;;;;13.38;3.00;;;;;;;;;;4996560;28;20032;-65
2022/11/29 09:47:14;;;;;;;11.63;3.50;;;;;;;;;;5007835;28;20042;-65
2022/11/29 09:49:53;;;;;;;13.57;6.13;;;;;;;;;;5007803;28;20021;-65
2022/11/29 09:52:25;;;;;;;11.05;4.25;;;;;;;;;;5002435;28;20052;-64
2022/11/29 09:55:26;;;;;;;16.38;9.25;;;;;;;;;;5005014;28;20041;-64
2022/11/29 09:57:57;;;;;;;12.32;5.05;;;;;;;;;;4966953;28;20424;-64
2022/11/29 10:00:26;;;;;;;11.70;3.40;;;;;;;;;;4969886;28;20847;-64
2022/11/29 10:03:09;;;;;;;12.32;3.13;;;;;;;;;;4967272;28;20471;-64
2022/11/29 10:05:51;;;;;;;13.15;3.05;;;;;;;;;;4970204;28;20050;-65
2022/11/29 10:08:35;;;;;;;56.47;44.65;;;;;;;;;;4948595;28;20662;-66
2022/11/29 10:11:19;;;;;;;58.15;49.40;;;;;;;;;;4963523;28;20513;-64
2022/11/29 10:14:00;;;;;;;27.95;20.33;;;;;;;;;;4970635;28;20578;-64
2022/11/29 10:16:35;;;;;;;76.20;54.00;;;;;;;;;;4964828;28;20073;-64
2022/11/29 10:19:21;;;;;;;54.45;43.80;;;;;;;;;;4963482;28;20038;-64
2022/11/29 10:21:54;;;;;;;27.05;18.48;;;;;;;;;;4964523;28;20448;-64
2022/11/29 10:29:33;;;;;;;28.30;21.85;;;;;;;;;;5013262;22;20057;-63
2022/11/29 10:32:04;;;;;;;16.55;9.82;;;;;;;;;;4976814;28;20065;-62
2022/11/29 10:34:30;;;;;;;11.75;5.10;;;;;;;;;;5005321;28;20040;-63
2022/11/29 10:36:58;;;;;;;11.90;5.07;;;;;;;;;;5005881;28;20060;-63
2022/11/29 10:39:24;;;;;;;10.45;4.00;;;;;;;;;;5003841;28;20537;-63
2022/11/29 10:41:53;;;;;;;10.65;3.10;;;;;;;;;;4996679;28;20452;-62
2022/11/29 10:44:19;;;;;;;11.25;3.20;;;;;;;;;;5002476;28;20029;-63
2022/11/29 10:46:46;;;;;;;10.13;2.95;;;;;;;;;;5006345;28;20439;-63
2022/11/29 10:49:14;;;;;;;10.05;2.70;;;;;;;;;;5007806;28;20045;-63
2022/11/29 10:51:40;;;;;;;7.38;2.15;;;;;;;;;;5005150;28;20408;-63
2022/11/29 10:54:12;;;;;;;8.32;2.03;;;;;;;;;;5002481;28;20039;-63
2022/11/29 10:56:40;;;;;;;9.40;2.30;;;;;;;;;;5006728;28;20087;-63
2022/11/29 10:59:08;;;;;;;8.32;2.03;;;;;;;;;;5006012;28;20701;-62
2022/11/29 11:01:42;;;;;;;11.75;3.03;;;;;;;;;;5005744;28;20033;-65
2022/11/29 11:04:15;;;;;;;10.73;3.08;;;;;;;;;;4997089;28;20113;-65
2022/11/29 11:06:43;;;;;;;9.43;3.03;;;;;;;;;;4966086;28;20116;-64
2022/11/29 11:09:30;;;;;;;10.50;3.78;;;;;;;;;;4970661;28;20026;-69
2022/11/29 11:11:59;;;;;;;9.77;3.00;;;;;;;;;;4966154;28;20705;-67
2022/11/29 11:14:25;;;;;;;13.75;3.05;;;;;;;;;;4964267;28;20069;-67
2022/11/29 11:16:52;;;;;;;10.82;3.00;;;;;;;;;;4967268;28;20022;-67
2022/11/29 11:19:25;;;;;;;13.00;3.20;;;;;;;;;;4963618;28;20297;-65
2022/11/29 11:21:51;;;;;;;9.85;3.08;;;;;;;;;;4959782;28;20032;-65
2022/11/29 11:24:24;;;;;;;11.43;3.83;;;;;;;;;;4961759;28;21383;-65
2022/11/29 11:26:51;;;;;;;15.48;3.75;;;;;;;;;;4958941;28;20436;-66
2022/11/29 11:29:19;;;;;;;14.52;3.25;;;;;;;;;;4958014;28;20654;-66
2022/11/29 11:31:51;;;;;;;10.50;3.90;;;;;;;;;;4957259;28;20026;-67
2022/11/29 11:34:26;;;;;;;15.77;3.88;;;;;;;;;;4957600;28;20037;-65
2022/11/29 11:36:52;;;;;;;13.10;3.92;;;;;;;;;;4959741;28;20036;-66
2022/11/29 11:39:20;;;;;;;11.32;3.08;;;;;;;;;;4954152;28;20377;-68
2022/11/29 11:44:35;;;;;;;7.40;2.30;;;;;;;;;;5004238;28;20119;-66
2022/11/29 11:47:04;;;;;;;11.73;2.33;;;;;;;;;;5004373;28;20462;-66
2022/11/29 11:49:30;;;;;;;7.25;1.77;;;;;;;;;;5005340;28;20033;-66
2022/11/29 11:52:00;;;;;;;8.40;2.45;;;;;;;;;;5006963;28;20036;-66
2022/11/29 11:54:26;;;;;;;7.72;2.38;;;;;;;;;;5007353;28;20044;-65
2022/11/29 11:56:52;;;;;;;9.45;1.70;;;;;;;;;;5006595;28;20525;-67
2022/11/29 11:59:20;;;;;;;11.75;1.95;;;;;;;;;;5005932;28;20402;-67
2022/11/29 12:01:46;;;;;;;6.82;1.85;;;;;;;;;;5007042;28;20052;-67
2022/11/29 12:04:18;;;;;;;10.52;2.25;;;;;;;;;;5007648;28;20407;-67
2022/11/29 12:06:51;;;;;;;8.50;2.42;;;;;;;;;;5005724;28;20233;-67
2022/11/29 12:09:36;;;;;;;7.05;2.15;;;;;;;;;;5003594;28;20176;-66
2022/11/29 12:12:25;;;;;;;12.77;2.23;;;;;;;;;;5012393;28;20033;-67
2022/11/29 12:15:02;;;;;;;7.97;1.58;;;;;;;;;;5002837;28;20051;-67
2022/11/29 12:17:54;;;;;;;8.80;1.45;;;;;;;;;;5007330;28;20374;-67
2022/11/29 12:20:39;;;;;;;9.88;2.47;;;;;;;;;;5000695;28;20149;-67
2022/11/29 12:23:05;;;;;;;6.67;2.00;;;;;;;;;;5000713;28;20079;-67
2022/11/29 12:25:34;;;;;;;8.40;2.00;;;;;;;;;;5003481;28;20048;-67
2022/11/29 12:28:00;;;;;;;9.43;1.98;;;;;;;;;;5003009;28;20084;-66
2022/11/29 12:30:26;;;;;;;10.43;3.60;;;;;;;;;;5004444;28;20511;-68
2022/11/29 12:33:11;;;;;;;9.55;4.10;;;;;;;;;;5004944;28;20029;-67
2022/11/29 12:35:43;;;;;;;9.95;4.07;;;;;;;;;;5003890;28;20083;-67
2022/11/29 12:38:14;;;;;;;8.52;2.42;;;;;;;;;;5004465;28;20029;-67
2022/11/29 12:40:54;;;;;;;11.60;2.78;;;;;;;;;;5005401;28;20028;-68
2022/11/29 12:43:39;;;;;;;8.98;3.10;;;;;;;;;;5000856;28;20025;-68
2022/11/29 12:46:12;;;;;;;13.00;2.50;;;;;;;;;;5006125;28;20109;-67
2022/11/29 12:48:44;;;;;;;6.88;1.55;;;;;;;;;;5007928;28;20321;-68
2022/11/29 12:51:29;;;;;;;10.68;3.30;;;;;;;;;;5001869;28;20033;-68
2022/11/29 12:54:08;;;;;;;9.48;2.45;;;;;;;;;;5004939;28;20204;-68
2022/11/29 12:56:37;;;;;;;8.23;2.05;;;;;;;;;;5005489;28;20596;-68
2022/11/29 12:59:13;;;;;;;5.82;1.50;;;;;;;;;;5002156;28;20034;-68
2022/11/29 13:01:58;;;;;;;5.63;1.40;;;;;;;;;;5004956;28;20035;-68
2022/11/29 13:04:30;;;;;;;10.15;2.85;;;;;;;;;;5005871;28;20029;-66
2022/11/29 13:06:57;;;;;;;9.80;2.50;;;;;;;;;;5003278;28;20029;-67
2022/11/29 13:09:46;;;;;;;5.75;1.10;;;;;;;;;;5001243;28;20048;-67
2022/11/29 13:12:27;;;;;;;7.95;1.90;;;;;;;;;;4954370;28;20595;-69
2022/11/29 13:15:00;;;;;;;8.85;3.70;;;;;;;;;;4949261;28;20132;-66
2022/11/29 13:17:32;;;;;;;7.70;1.98;;;;;;;;;;4959404;28;20057;-67
2022/11/29 13:20:08;;;;;;;7.32;2.30;;;;;;;;;;4951722;28;20034;-67
2022/11/29 13:22:42;;;;;;;8.18;2.08;;;;;;;;;;4958636;28;20038;-67
2022/11/29 13:25:13;;;;;;;5.35;1.60;;;;;;;;;;4955475;28;20100;-67
2022/11/29 13:27:41;;;;;;;5.95;1.20;;;;;;;;;;4956854;28;20098;-67
2022/11/29 13:30:13;;;;;;;5.63;1.63;;;;;;;;;;4957315;28;20046;-69
2022/11/29 13:37:50;;;;;;;6.68;1.90;;;;;;;;;;5127809;22;20801;-65
2022/11/29 13:40:32;;;;;;;7.35;1.60;;;;;;;;;;5009378;28;20033;-65
2022/11/29 13:43:16;;;;;;;7.22;2.17;;;;;;;;;;5004914;28;20037;-64
2022/11/29 13:45:46;;;;;;;11.05;2.90;;;;;;;;;;5006716;28;20032;-66
2022/11/29 13:48:32;;;;;;;11.07;3.33;;;;;;;;;;5013262;28;20049;-66
2022/11/29 13:50:58;;;;;;;7.75;2.63;;;;;;;;;;5006077;28;20027;-66
2022/11/29 13:53:29;;;;;;;8.02;2.50;;;;;;;;;;4992069;28;20037;-66
2022/11/29 13:56:00;;;;;;;9.27;2.67;;;;;;;;;;4988757;28;20542;-66
2022/11/29 13:58:29;;;;;;;8.95;2.50;;;;;;;;;;5026019;28;20546;-66
2022/11/29 14:01:00;;;;;;;9.02;2.63;;;;;;;;;;5006965;28;20591;-66
2022/11/29 14:03:47;;;;;;;9.50;2.10;;;;;;;;;;5011498;28;20032;-65
2022/11/29 14:06:22;;;;;;;7.68;2.25;;;;;;;;;;5009320;28;20115;-66
2022/11/29 14:08:51;;;;;;;6.93;1.75;;;;;;;;;;4985188;28;20115;-65
2022/11/29 14:11:36;;;;;;;8.88;2.03;;;;;;;;;;5009207;28;20384;-66
2022/11/29 14:14:16;;;;;;;6.25;1.92;;;;;;;;;;5003700;28;20108;-66
2022/11/29 14:16:42;;;;;;;6.07;1.30;;;;;;;;;;5003140;28;20033;-66
2022/11/29 14:19:09;;;;;;;6.20;2.00;;;;;;;;;;5011025;28;20021;-65
2022/11/29 14:21:53;;;;;;;6.72;1.92;;;;;;;;;;5003545;28;20037;-66
2022/11/29 14:24:32;;;;;;;9.30;1.73;;;;;;;;;;5005655;28;20268;-66
2022/11/29 14:27:17;;;;;;;9.70;2.40;;;;;;;;;;5003173;28;20033;-66
2022/11/29 14:29:51;;;;;;;7.40;1.60;;;;;;;;;;5003050;28;20056;-66
2022/11/29 14:32:29;;;;;;;5.00;1.33;;;;;;;;;;5002759;28;20041;-66
2022/11/29 14:34:55;;;;;;;7.85;1.88;;;;;;;;;;4998148;28;20689;-65
2022/11/29 14:37:28;;;;;;;6.05;1.40;;;;;;;;;;4985384;28;20057;-66
2022/11/29 14:39:56;;;;;;;6.25;1.65;;;;;;;;;;5005745;28;20021;-65
2022/11/29 14:42:29;;;;;;;4.97;1.55;;;;;;;;;;4985043;28;20642;-66
2022/11/29 14:44:58;;;;;;;7.32;1.80;;;;;;;;;;4999589;28;20029;-65
2022/11/29 14:47:30;;;;;;;6.93;1.27;;;;;;;;;;4986925;28;20030;-66
2022/11/29 14:49:57;;;;;;;4.95;1.67;;;;;;;;;;5003817;28;20040;-65
2022/11/29 14:52:27;;;;;;;3.97;1.13;;;;;;;;;;5006738;28;20435;-66
2022/11/29 14:55:02;;;;;;;4.40;1.10;;;;;;;;;;4997495;28;20026;-65
2022/11/29 14:57:49;;;;;;;3.45;1.02;;;;;;;;;;5005685;28;20036;-65
2022/11/29 15:00:26;;;;;;;6.35;2.05;;;;;;;;;;5004763;28;20386;-66
2022/11/29 15:02:55;;;;;;;6.47;1.45;;;;;;;;;;4999973;28;20034;-66
2022/11/29 15:05:39;;;;;;;5.55;1.55;;;;;;;;;;4998352;28;20045;-67
2022/11/29 15:08:24;;;;;;;4.22;1.15;;;;;;;;;;4977424;28;20044;-67
2022/11/29 15:10:52;;;;;;;5.38;1.60;;;;;;;;;;5005892;28;20036;-67
2022/11/29 15:13:30;;;;;;;7.18;2.42;;;;;;;;;;4987877;28;20474;-67
2022/11/29 15:16:05;;;;;;;5.93;1.52;;;;;;;;;;5002216;28;20440;-67
2022/11/29 15:18:58;;;;;;;11.68;2.25;;;;;;;;;;4984412;28;20034;-67
2022/11/29 15:21:30;;;;;;;6.03;1.23;;;;;;;;;;4996152;28;20374;-67
2022/11/29 15:23:58;;;;;;;9.27;1.85;;;;;;;;;;4982135;28;20033;-67
2022/11/29 15:26:25;;;;;;;11.25;2.08;;;;;;;;;;4989516;28;20040;-69
2022/11/29 15:28:52;;;;;;;12.15;2.45;;;;;;;;;;5001417;28;20060;-69
2022/11/29 15:31:19;;;;;;;8.07;2.25;;;;;;;;;;5005539;28;20029;-67
2022/11/29 15:33:47;;;;;;;10.05;2.60;;;;;;;;;;4998872;28;20483;-67
2022/11/29 15:36:21;;;;;;;7.75;2.00;;;;;;;;;;5003087;28;20085;-67
2022/11/29 15:38:48;;;;;;;6.75;1.50;;;;;;;;;;5002661;28;20033;-67
2022/11/29 15:41:22;;;;;;;6.15;1.63;;;;;;;;;;5015664;28;20544;-67
2022/11/29 15:43:51;;;;;;;7.18;1.63;;;;;;;;;;5011828;28;20124;-67
2022/11/29 15:46:18;;;;;;;7.80;1.77;;;;;;;;;;4989685;28;20033;-67
2022/11/29 15:48:44;;;;;;;4.68;1.27;;;;;;;;;;5004455;28;20041;-68
2022/11/29 15:51:30;;;;;;;5.90;1.67;;;;;;;;;;5004919;28;20601;-67
2022/11/29 15:53:58;;;;;;;8.68;1.90;;;;;;;;;;5004770;28;20118;-67
2022/11/29 15:56:41;;;;;;;7.18;2.20;;;;;;;;;;5011809;28;20029;-67
2022/11/29 15:59:25;;;;;;;8.75;2.10;;;;;;;;;;5006449;28;20026;-67
2022/11/29 16:01:54;;;;;;;6.32;1.70;;;;;;;;;;4986039;28;20464;-67
2022/11/29 16:04:21;;;;;;;6.07;1.60;;;;;;;;;;5003600;28;20099;-67
2022/11/29 16:06:48;;;;;;;5.03;1.20;;;;;;;;;;4996935;28;20041;-67
2022/11/29 16:09:19;;;;;;;7.13;2.00;;;;;;;;;;5005183;28;20308;-68
2022/11/29 16:11:46;;;;;;;7.05;1.80;;;;;;;;;;4982846;28;20528;-67
2022/11/29 16:14:21;;;;;;;9.68;1.83;;;;;;;;;;5007505;28;20031;-67
2022/11/29 16:16:48;;;;;;;4.80;1.00;;;;;;;;;;5003751;28;20531;-67
2022/11/29 16:19:24;;;;;;;5.75;1.40;;;;;;;;;;5007092;28;20136;-69
2022/11/29 16:22:09;;;;;;;7.32;1.90;;;;;;;;;;4999596;28;20259;-68
2022/11/29 16:24:36;;;;;;;6.88;2.25;;;;;;;;;;5005638;28;20125;-67
2022/11/29 16:27:03;;;;;;;6.00;1.42;;;;;;;;;;5003281;28;20030;-66
2022/11/29 16:29:43;;;;;;;8.27;1.80;;;;;;;;;;4989697;28;20060;-69
2022/11/29 16:32:13;;;;;;;10.65;2.28;;;;;;;;;;5007784;28;20920;-67
2022/11/29 16:34:41;;;;;;;7.13;1.88;;;;;;;;;;5006252;28;20156;-68
2022/11/29 16:37:14;;;;;;;6.00;1.92;;;;;;;;;;4986669;28;20087;-68
2022/11/29 16:39:40;;;;;;;9.40;2.50;;;;;;;;;;5003288;28;20102;-68
2022/11/29 16:42:06;;;;;;;;;;;;;;;;;;5002695;28;20506;-68
2022/11/29 16:44:38;;;;;;;8.63;2.57;;;;;;;;;;5007214;28;20347;-68
2022/11/29 16:47:31;;;;;;;7.22;2.20;;;;;;;;;;4983410;28;20514;-68
2022/11/29 16:50:13;;;;;;;11.48;3.30;;;;;;;;;;4983801;28;20064;-68
2022/11/29 16:52:39;;;;;;;12.45;4.22;;;;;;;;;;5002501;28;20446;-69
2022/11/29 16:55:05;;;;;;;11.23;4.20;;;;;;;;;;4999733;28;20081;-68
2022/11/29 16:57:31;;;;;;;;;;;;;;;;;;4984975;28;20296;-68
2022/11/29 16:59:57;;;;;;;12.93;5.10;;;;;;;;;;5005368;28;19920;-68
2022/11/29 17:02:23;;;;;;;;;;;;;;;;;;4987709;28;20030;-68
2022/11/29 17:04:52;;;;;;;21.83;6.97;;;;;;;;;;5006477;28;21084;-68
2022/11/29 17:07:25;;;;;;;13.15;4.95;;;;;;;;;;4986362;28;20409;-68
2022/11/29 17:09:52;;;;;;;13.57;5.15;;;;;;;;;;5004816;28;20106;-66
2022/11/29 17:12:18;;;;;;;15.52;6.40;;;;;;;;;;5005898;28;20048;-66
2022/11/29 17:14:44;;;;;;;17.90;8.35;;;;;;;;;;5000379;28;20036;-67
2022/11/29 17:17:14;;;;;;;30.70;13.98;;;;;;;;;;4985378;28;20589;-66
2022/11/29 17:19:41;;;;;;;29.38;15.40;;;;;;;;;;5006778;28;20576;-66
2022/11/29 17:22:07;;;;;;;;;;;;;;;;;;4994681;28;20060;-67
2022/11/29 17:24:33;;;;;;;32.80;17.77;;;;;;;;;;4991850;28;20011;-66
2022/11/29 17:27:00;;;;;;;38.85;22.95;;;;;;;;;;5007103;28;20033;-68
2022/11/29 17:29:26;;;;;;;53.55;31.70;;;;;;;;;;5009494;28;20202;-66
2022/11/29 17:31:52;;;;;;;51.75;29.02;;;;;;;;;;4998044;28;20022;-66
2022/11/29 17:34:18;;;;;;;38.50;23.83;;;;;;;;;;5002638;28;20123;-66
2022/11/29 17:36:44;;;;;;;;;;;;;;;;;;5002916;28;20158;-67
2022/11/29 17:39:11;;;;;;;37.92;20.60;;;;;;;;;;4988945;28;20002;-67
2022/11/29 17:41:37;;;;;;;34.88;17.55;;;;;;;;;;4988209;28;20612;-66
2022/11/29 17:44:03;;;;;;;25.30;12.43;;;;;;;;;;4989157;28;20029;-66
2022/11/29 17:46:29;;;;;;;;;;;;;;;;;;5011181;28;20029;-66
2022/11/29 17:48:57;;;;;;;19.50;10.43;;;;;;;;;;5006912;28;19916;-67
2022/11/29 17:51:24;;;;;;;17.20;8.30;;;;;;;;;;5008289;28;20474;-68
2022/11/29 17:53:51;;;;;;;16.58;8.68;;;;;;;;;;5004547;28;20029;-67
2022/11/29 17:56:19;;;;;;;17.23;7.80;;;;;;;;;;5011655;28;20064;-68
2022/11/29 17:58:45;;;;;;;19.50;12.55;;;;;;;;;;4989387;28;20407;-69
2022/11/29 18:01:13;;;;;;;17.30;9.10;;;;;;;;;;4994468;28;20124;-68
2022/11/29 18:03:40;;;;;;;16.65;9.45;;;;;;;;;;4988618;28;20040;-68
2022/11/29 18:06:08;;;;;;;21.75;9.45;;;;;;;;;;4990593;28;20030;-68
2022/11/29 18:08:44;;;;;;;17.58;8.40;;;;;;;;;;5012471;28;20033;-68
2022/11/29 18:11:10;;;;;;;18.75;8.00;;;;;;;;;;4993039;28;20427;-68
2022/11/29 18:13:36;;;;;;;15.77;8.20;;;;;;;;;;4989442;28;20482;-67
2022/11/29 18:16:05;;;;;;;21.95;12.10;;;;;;;;;;5002849;28;20091;-68
2022/11/29 18:18:31;;;;;;;24.85;13.88;;;;;;;;;;4987379;28;20342;-68
2022/11/29 18:21:01;;;;;;;18.48;10.13;;;;;;;;;;5002888;28;20449;-68
2022/11/29 18:23:28;;;;;;;19.80;10.23;;;;;;;;;;5004919;28;20030;-68
2022/11/29 18:26:02;;;;;;;18.23;9.13;;;;;;;;;;4986242;28;20060;-67
2022/11/29 18:28:29;;;;;;;19.63;8.85;;;;;;;;;;4993379;28;20852;-68
2022/11/29 18:30:55;;;;;;;28.10;17.15;;;;;;;;;;4994141;28;20037;-68
2022/11/29 18:33:22;;;;;;;40.00;26.15;;;;;;;;;;4989739;28;20136;-68
2022/11/29 18:35:48;;;;;;;43.95;28.98;;;;;;;;;;5005657;28;20116;-67
2022/11/29 18:38:14;;;;;;;55.95;30.60;;;;;;;;;;4987738;28;20037;-67
2022/11/29 18:40:41;;;;;;;49.05;30.73;;;;;;;;;;5010181;28;20350;-66
2022/11/29 18:43:08;;;;;;;59.05;37.65;;;;;;;;;;5008423;28;20976;-66
2022/11/29 18:45:35;;;;;;;58.17;36.35;;;;;;;;;;5007637;28;20654;-67
2022/11/29 18:48:01;;;;;;;51.40;32.22;;;;;;;;;;4989962;28;20621;-67
2022/11/29 18:50:29;;;;;;;52.78;31.45;;;;;;;;;;5008245;28;20033;-66
2022/11/29 18:52:56;;;;;;;51.47;33.40;;;;;;;;;;5009165;28;20139;-67
2022/11/29 18:55:22;;;;;;;46.80;30.45;;;;;;;;;;4983044;28;20532;-67
2022/11/29 18:57:48;;;;;;;42.80;27.60;;;;;;;;;;5005015;28;20036;-67
2022/11/29 19:00:15;;;;;;;36.22;22.90;;;;;;;;;;5006806;28;20550;-67
2022/11/29 19:02:41;;;;;;;;;;;;;;;;;;4989497;28;20030;-67
2022/11/29 19:05:08;;;;;;;32.67;19.88;;;;;;;;;;4986372;28;19960;-67
2022/11/29 19:07:34;;;;;;;28.65;15.80;;;;;;;;;;5006809;28;20806;-67
2022/11/29 19:10:00;;;;;;;28.75;16.52;;;;;;;;;;4985766;28;20447;-68
2022/11/29 19:12:26;;;;;;;28.13;14.52;;;;;;;;;;5005565;28;20025;-68
2022/11/29 19:14:52;;;;;;;21.90;12.93;;;;;;;;;;5000686;28;20044;-67
2022/11/29 19:17:18;;;;;;;;;;;;;;;;;;4989788;28;20079;-67
2022/11/29 19:19:44;;;;;;;25.70;13.05;;;;;;;;;;4980322;28;19917;-66
2022/11/29 19:22:11;;;;;;;22.95;14.48;;;;;;;;;;5007261;28;20541;-66
2022/11/29 19:24:37;;;;;;;;;;;;;;;;;;4985335;28;20056;-66
2022/11/29 19:27:03;;;;;;;27.00;15.43;;;;;;;;;;5003850;28;21187;-67
2022/11/29 19:29:30;;;;;;;27.17;15.32;;;;;;;;;;4982548;28;20034;-66
2022/11/29 19:31:56;;;;;;;27.60;16.33;;;;;;;;;;4983444;28;20338;-69
2022/11/29 19:34:22;;;;;;;24.83;14.63;;;;;;;;;;5006678;28;20044;-67
2022/11/29 19:36:48;;;;;;;28.08;16.42;;;;;;;;;;5001992;28;20503;-67
2022/11/29 19:39:15;;;;;;;43.15;32.30;;;;;;;;;;5009038;28;20136;-67
2022/11/29 19:41:43;;;;;;;44.28;29.45;;;;;;;;;;5007430;28;20067;-67
2022/11/29 19:44:10;;;;;;;38.00;23.05;;;;;;;;;;5007172;28;20032;-67
2022/11/29 19:46:37;;;;;;;26.40;15.50;;;;;;;;;;4985199;28;20459;-67
2022/11/29 19:49:05;;;;;;;21.98;11.88;;;;;;;;;;5002603;28;20037;-67
2022/11/29 19:51:32;;;;;;;21.73;11.02;;;;;;;;;;5006799;28;20035;-67
2022/11/29 19:53:59;;;;;;;20.38;11.48;;;;;;;;;;5003454;28;20139;-68
2022/11/29 19:56:26;;;;;;;22.75;12.52;;;;;;;;;;4983678;28;20030;-67
2022/11/29 19:58:53;;;;;;;20.95;10.68;;;;;;;;;;4999582;28;20044;-68
2022/11/29 20:01:21;;;;;;;20.65;10.70;;;;;;;;;;5005027;28;20042;-68
2022/11/29 20:03:48;;;;;;;17.83;10.75;;;;;;;;;;5000970;28;20530;-67
2022/11/29 20:06:15;;;;;;;19.27;10.35;;;;;;;;;;5003227;28;20036;-67
2022/11/29 20:08:42;;;;;;;22.98;11.27;;;;;;;;;;5006130;28;20041;-67
2022/11/29 20:11:10;;;;;;;26.38;16.65;;;;;;;;;;4984490;28;20028;-67
2022/11/29 20:13:37;;;;;;;24.63;14.85;;;;;;;;;;5004508;28;20041;-67
2022/11/29 20:16:17;;;;;;;24.10;14.10;;;;;;;;;;4982728;28;20138;-67
2022/11/29 20:18:43;;;;;;;21.92;12.80;;;;;;;;;;4979223;28;20654;-67
2022/11/29 20:21:11;;;;;;;27.23;15.45;;;;;;;;;;5003185;28;20071;-67
2022/11/29 20:23:38;;;;;;;37.97;22.35;;;;;;;;;;5004319;28;20072;-67
2022/11/29 20:26:07;;;;;;;38.15;23.48;;;;;;;;;;4984464;28;20080;-67
2022/11/29 20:28:34;;;;;;;35.55;22.13;;;;;;;;;;5006822;28;20036;-67
2022/11/29 20:31:06;;;;;;;31.52;19.70;;;;;;;;;;4999390;28;20140;-68
2022/11/29 20:33:32;;;;;;;24.90;14.27;;;;;;;;;;4987093;28;20695;-68
2022/11/29 20:36:02;;;;;;;22.90;12.73;;;;;;;;;;4975145;28;20050;-68
2022/11/29 20:38:39;;;;;;;21.08;10.50;;;;;;;;;;5005279;28;20025;-68
2022/11/29 20:41:13;;;;;;;19.95;10.50;;;;;;;;;;5004668;28;20660;-68
2022/11/29 20:43:49;;;;;;;20.67;11.65;;;;;;;;;;5008277;28;20033;-67
2022/11/29 20:46:15;;;;;;;19.08;10.55;;;;;;;;;;5006151;28;20514;-68
2022/11/29 20:48:42;;;;;;;20.83;10.75;;;;;;;;;;4990830;28;20036;-67
2022/11/29 20:51:10;;;;;;;21.50;11.77;;;;;;;;;;5003677;28;20054;-67
2022/11/29 20:53:45;;;;;;;23.83;14.43;;;;;;;;;;4985653;28;20038;-68
2022/11/29 20:56:11;;;;;;;22.65;12.50;;;;;;;;;;4988455;28;20463;-67
2022/11/29 20:58:37;;;;;;;;;;;;;;;;;;5003665;28;20034;-67
2022/11/29 21:01:04;;;;;;;19.25;10.02;;;;;;;;;;5001921;28;19963;-67
2022/11/29 21:03:30;;;;;;;18.85;10.05;;;;;;;;;;5004310;28;20040;-67
2022/11/29 21:05:57;;;;;;;20.23;10.13;;;;;;;;;;4981000;28;20533;-67
2022/11/29 21:08:25;;;;;;;20.02;10.00;;;;;;;;;;4985612;28;20025;-67
2022/11/29 21:10:51;;;;;;;21.33;10.48;;;;;;;;;;5002579;28;20394;-67
2022/11/29 21:13:17;;;;;;;;;;;;;;;;;;4984750;28;20034;-67
2022/11/29 21:15:44;;;;;;;20.75;10.48;;;;;;;;;;4981080;28;19917;-67
2022/11/29 21:18:21;;;;;;;21.02;11.52;;;;;;;;;;4979393;28;20036;-67
2022/11/29 21:20:47;;;;;;;;;;;;;;;;;;4984585;28;20350;-68
2022/11/29 21:23:19;;;;;;;13.25;7.78;;;;;;;;;;4988848;28;19920;-67
2022/11/29 21:26:01;;;;;;;13.85;7.50;;;;;;;;;;5000917;28;20037;-67
2022/11/29 21:28:34;;;;;;;13.27;6.82;;;;;;;;;;5007561;28;20106;-67
2022/11/29 21:31:00;;;;;;;13.35;6.70;;;;;;;;;;4982037;28;20503;-67
2022/11/29 21:33:26;;;;;;;17.00;7.20;;;;;;;;;;5005508;28;20364;-66
2022/11/29 21:35:54;;;;;;;15.77;7.78;;;;;;;;;;4977973;28;20049;-67
2022/11/29 21:38:22;;;;;;;17.23;9.20;;;;;;;;;;5004105;28;20057;-67
2022/11/29 21:40:48;;;;;;;18.40;9.90;;;;;;;;;;4995027;28;20045;-67
2022/11/29 21:43:14;;;;;;;22.73;11.88;;;;;;;;;;5004896;28;20032;-67
2022/11/29 21:45:40;;;;;;;20.77;11.55;;;;;;;;;;4986907;28;20441;-67
2022/11/29 21:48:33;;;;;;;40.20;21.33;;;;;;;;;;5017005;28;20132;-67
2022/11/29 21:50:55;;;;;;;26.38;14.30;;;;;;;;;;5007397;28;20096;-67
2022/11/29 21:53:21;;;;;;;23.67;12.88;;;;;;;;;;5009642;28;20028;-67
2022/11/29 21:55:47;;;;;;;19.88;10.93;;;;;;;;;;5003778;28;20029;-67
2022/11/29 21:58:13;;;;;;;17.58;9.30;;;;;;;;;;5010755;28;20033;-67
2022/11/29 22:00:39;;;;;;;26.38;13.13;;;;;;;;;;5006554;28;20029;-67
2022/11/29 22:03:05;;;;;;;18.05;10.48;;;;;;;;;;5004400;28;20136;-67
2022/11/29 22:05:31;;;;;;;20.77;10.75;;;;;;;;;;5006457;28;20040;-67
2022/11/29 22:07:57;;;;;;;18.75;10.20;;;;;;;;;;5007180;28;20040;-67
2022/11/29 22:10:24;;;;;;;16.20;8.85;;;;;;;;;;5007138;28;20021;-67
2022/11/29 22:12:50;;;;;;;16.02;7.78;;;;;;;;;;5000244;28;20357;-67
2022/11/29 22:15:16;;;;;;;13.80;6.90;;;;;;;;;;4986149;28;20151;-67
2022/11/29 22:17:42;;;;;;;12.95;6.72;;;;;;;;;;4989475;28;20060;-68
2022/11/29 22:20:08;;;;;;;15.00;7.43;;;;;;;;;;5004184;28;20033;-67
2022/11/29 22:22:34;;;;;;;16.38;7.88;;;;;;;;;;5004698;28;20437;-67
2022/11/29 22:25:01;;;;;;;15.13;7.80;;;;;;;;;;4997126;28;20364;-69
2022/11/29 22:27:27;;;;;;;18.70;9.05;;;;;;;;;;5006718;28;20479;-67
2022/11/29 22:29:53;;;;;;;25.40;11.73;;;;;;;;;;5005064;28;20418;-67
2022/11/29 22:32:19;;;;;;;25.45;12.40;;;;;;;;;;5006404;28;20033;-67
2022/11/29 22:34:46;;;;;;;20.90;10.20;;;;;;;;;;4980143;28;20328;-67
2022/11/29 22:37:12;;;;;;;18.83;9.30;;;;;;;;;;5006995;28;20064;-67
2022/11/29 22:39:38;;;;;;;19.23;8.20;;;;;;;;;;5006777;28;20728;-67
2022/11/29 22:42:04;;;;;;;16.70;6.50;;;;;;;;;;5004595;28;20550;-67
2022/11/29 22:44:30;;;;;;;13.82;6.53;;;;;;;;;;5001731;28;20049;-67
2022/11/29 22:46:56;;;;;;;14.00;6.32;;;;;;;;;;5002285;28;20366;-67
2022/11/29 22:49:22;;;;;;;13.85;5.65;;;;;;;;;;5006569;28;20017;-67
2022/11/29 22:51:48;;;;;;;12.27;6.07;;;;;;;;;;5000621;28;20034;-67
2022/11/29 22:54:16;;;;;;;13.80;5.90;;;;;;;;;;4986743;28;20025;-67
2022/11/29 22:56:43;;;;;;;12.32;5.80;;;;;;;;;;4986644;28;20600;-67
2022/11/29 22:59:09;;;;;;;10.95;5.43;;;;;;;;;;4989405;28;20097;-67
2022/11/29 23:01:36;;;;;;;11.18;4.82;;;;;;;;;;5004254;28;20410;-69
2022/11/29 23:04:04;;;;;;;11.77;4.32;;;;;;;;;;5010486;28;20329;-67
2022/11/29 23:06:32;;;;;;;10.18;4.50;;;;;;;;;;5008040;28;20117;-67
2022/11/29 23:08:59;;;;;;;8.98;3.92;;;;;;;;;;5011881;28;20990;-67
2022/11/29 23:11:27;;;;;;;10.65;4.47;;;;;;;;;;4991838;28;20494;-67
2022/11/29 23:13:53;;;;;;;9.40;3.70;;;;;;;;;;5003084;28;20037;-67
2022/11/29 23:16:24;;;;;;;10.30;4.07;;;;;;;;;;5002396;28;20369;-66
2022/11/29 23:18:50;;;;;;;11.50;4.43;;;;;;;;;;5001331;28;20033;-67
2022/11/29 23:21:16;;;;;;;;;;;;;;;;;;5002780;28;20037;-67
2022/11/29 23:23:43;;;;;;;9.85;3.75;;;;;;;;;;4984882;28;20330;-67
2022/11/29 23:26:15;;;;;;;10.38;4.05;;;;;;;;;;5003873;28;20037;-67
2022/11/29 23:28:41;;;;;;;11.25;5.00;;;;;;;;;;5008021;28;20041;-67
2022/11/29 23:31:07;;;;;;;9.85;4.32;;;;;;;;;;4982427;28;20041;-67
2022/11/29 23:33:33;;;;;;;11.25;4.15;;;;;;;;;;5005450;28;20040;-68
2022/11/29 23:36:01;;;;;;;9.82;4.50;;;;;;;;;;5003645;28;20061;-68
2022/11/29 23:38:27;;;;;;;10.68;5.22;;;;;;;;;;5006670;28;20135;-67